sensor_id;sensor_type;location;lat;lon;timestamp;temperature;humidity
32293;DHT22;43233;48.608;8.838;2023-05-18T00:00:34;5.70;71.50
32293;DHT22;43233;48.608;8.838;2023-05-18T00:03:00;5.70;71.50
32293;DHT22;43233;48.608;8.838;2023-05-18T00:05:27;5.60;71.40
32293;DHT22;43233;48.608;8.838;2023-05-18T00:07:59;5.70;71.50
32293;DHT22;43233;48.608;8.838;2023-05-18T00:10:25;5.70;71.50
32293;DHT22;43233;48.608;8.838;2023-05-18T00:12:51;5.60;71.40
32293;DHT22;43233;48.608;8.838;2023-05-18T00:15:17;5.70;71.30
32293;DHT22;43233;48.608;8.838;2023-05-18T00:17:42;5.70;70.90
32293;DHT22;43233;48.608;8.838;2023-05-18T00:20:08;5.80;70.70
32293;DHT22;43233;48.608;8.838;2023-05-18T00:22:34;5.80;70.70
32293;DHT22;43233;48.608;8.838;2023-05-18T00:25:00;5.80;70.70
32293;DHT22;43233;48.608;8.838;2023-05-18T00:27:26;5.80;70.60
32293;DHT22;43233;48.608;8.838;2023-05-18T00:29:51;5.80;70.40
32293;DHT22;43233;48.608;8.838;2023-05-18T00:32:17;5.90;70.10
32293;DHT22;43233;48.608;8.838;2023-05-18T00:34:42;5.90;70.10
32293;DHT22;43233;48.608;8.838;2023-05-18T00:37:08;5.90;69.90
32293;DHT22;43233;48.608;8.838;2023-05-18T00:39:33;5.90;69.60
32293;DHT22;43233;48.608;8.838;2023-05-18T00:41:59;5.90;69.20
32293;DHT22;43233;48.608;8.838;2023-05-18T00:44:25;6.00;69.20
32293;DHT22;43233;48.608;8.838;2023-05-18T00:46:50;6.00;69.30
32293;DHT22;43233;48.608;8.838;2023-05-18T00:49:16;5.90;69.50
32293;DHT22;43233;48.608;8.838;2023-05-18T00:51:43;5.90;69.80
32293;DHT22;43233;48.608;8.838;2023-05-18T00:54:09;5.90;70.00
32293;DHT22;43233;48.608;8.838;2023-05-18T00:56:36;5.80;70.00
32293;DHT22;43233;48.608;8.838;2023-05-18T00:59:06;5.80;70.10
32293;DHT22;43233;48.608;8.838;2023-05-18T01:01:34;5.80;70.20
32293;DHT22;43233;48.608;8.838;2023-05-18T01:04:01;5.80;70.30
32293;DHT22;43233;48.608;8.838;2023-05-18T01:06:31;5.80;70.40
32293;DHT22;43233;48.608;8.838;2023-05-18T01:09:01;5.80;70.40
32293;DHT22;43233;48.608;8.838;2023-05-18T01:22:34;5.70;71.30
32293;DHT22;43233;48.608;8.838;2023-05-18T01:27:58;5.80;71.90
32293;DHT22;43233;48.608;8.838;2023-05-18T01:30:24;5.80;72.10
32293;DHT22;43233;48.608;8.838;2023-05-18T01:32:50;5.80;72.10
32293;DHT22;43233;48.608;8.838;2023-05-18T01:35:16;5.80;72.10
32293;DHT22;43233;48.608;8.838;2023-05-18T01:37:41;5.80;72.10
32293;DHT22;43233;48.608;8.838;2023-05-18T01:40:08;5.80;72.00
32293;DHT22;43233;48.608;8.838;2023-05-18T01:42:38;5.90;72.00
32293;DHT22;43233;48.608;8.838;2023-05-18T01:45:18;5.90;72.10
32293;DHT22;43233;48.608;8.838;2023-05-18T01:47:45;5.90;72.30
32293;DHT22;43233;48.608;8.838;2023-05-18T01:50:14;5.90;72.40
32293;DHT22;43233;48.608;8.838;2023-05-18T01:53:05;5.90;72.50
32293;DHT22;43233;48.608;8.838;2023-05-18T01:55:34;5.90;72.70
32293;DHT22;43233;48.608;8.838;2023-05-18T01:58:01;5.90;72.60
32293;DHT22;43233;48.608;8.838;2023-05-18T02:00:28;5.90;72.60
32293;DHT22;43233;48.608;8.838;2023-05-18T02:02:54;5.90;72.70
32293;DHT22;43233;48.608;8.838;2023-05-18T02:05:20;5.90;72.90
32293;DHT22;43233;48.608;8.838;2023-05-18T02:07:46;5.90;72.90
32293;DHT22;43233;48.608;8.838;2023-05-18T02:10:12;5.90;72.90
32293;DHT22;43233;48.608;8.838;2023-05-18T02:12:37;5.90;73.00
32293;DHT22;43233;48.608;8.838;2023-05-18T02:15:04;5.90;73.00
32293;DHT22;43233;48.608;8.838;2023-05-18T02:17:32;5.90;73.00
32293;DHT22;43233;48.608;8.838;2023-05-18T02:19:57;5.80;73.10
32293;DHT22;43233;48.608;8.838;2023-05-18T02:22:23;5.80;73.20
32293;DHT22;43233;48.608;8.838;2023-05-18T02:24:48;5.80;73.40
32293;DHT22;43233;48.608;8.838;2023-05-18T02:27:14;5.80;73.60
32293;DHT22;43233;48.608;8.838;2023-05-18T02:29:40;5.80;73.80
32293;DHT22;43233;48.608;8.838;2023-05-18T02:32:06;5.80;73.80
32293;DHT22;43233;48.608;8.838;2023-05-18T02:34:32;5.80;74.00
32293;DHT22;43233;48.608;8.838;2023-05-18T02:37:00;5.80;74.10
32293;DHT22;43233;48.608;8.838;2023-05-18T02:39:28;5.80;74.20
32293;DHT22;43233;48.608;8.838;2023-05-18T02:41:54;5.70;74.50
32293;DHT22;43233;48.608;8.838;2023-05-18T02:44:19;5.70;74.70
32293;DHT22;43233;48.608;8.838;2023-05-18T02:46:46;5.70;74.90
32293;DHT22;43233;48.608;8.838;2023-05-18T02:49:11;5.70;75.20
32293;DHT22;43233;48.608;8.838;2023-05-18T02:51:37;5.70;75.20
32293;DHT22;43233;48.608;8.838;2023-05-18T02:54:02;5.70;75.50
32293;DHT22;43233;48.608;8.838;2023-05-18T02:56:28;5.70;75.60
32293;DHT22;43233;48.608;8.838;2023-05-18T02:58:53;5.70;75.70
32293;DHT22;43233;48.608;8.838;2023-05-18T03:01:23;5.60;75.70
32293;DHT22;43233;48.608;8.838;2023-05-18T03:03:55;5.70;76.10
32293;DHT22;43233;48.608;8.838;2023-05-18T03:06:24;5.60;76.10
32293;DHT22;43233;48.608;8.838;2023-05-18T03:08:51;5.60;76.10
32293;DHT22;43233;48.608;8.838;2023-05-18T03:11:23;5.60;76.10
32293;DHT22;43233;48.608;8.838;2023-05-18T03:13:49;5.60;76.20
32293;DHT22;43233;48.608;8.838;2023-05-18T03:16:15;5.60;76.10
32293;DHT22;43233;48.608;8.838;2023-05-18T03:18:41;5.60;75.90
32293;DHT22;43233;48.608;8.838;2023-05-18T03:21:07;5.60;76.70
32293;DHT22;43233;48.608;8.838;2023-05-18T03:23:33;5.50;76.00
32293;DHT22;43233;48.608;8.838;2023-05-18T03:25:59;5.50;76.00
32293;DHT22;43233;48.608;8.838;2023-05-18T03:28:28;5.50;76.00
32293;DHT22;43233;48.608;8.838;2023-05-18T03:30:54;5.50;76.00
32293;DHT22;43233;48.608;8.838;2023-05-18T03:33:20;5.50;76.10
32293;DHT22;43233;48.608;8.838;2023-05-18T03:35:46;5.50;76.00
32293;DHT22;43233;48.608;8.838;2023-05-18T03:38:11;5.50;76.00
32293;DHT22;43233;48.608;8.838;2023-05-18T03:40:37;5.50;76.10
32293;DHT22;43233;48.608;8.838;2023-05-18T03:43:02;5.50;76.00
32293;DHT22;43233;48.608;8.838;2023-05-18T03:45:28;5.50;76.00
32293;DHT22;43233;48.608;8.838;2023-05-18T03:47:54;5.40;75.80
32293;DHT22;43233;48.608;8.838;2023-05-18T03:50:19;5.40;75.80
32293;DHT22;43233;48.608;8.838;2023-05-18T03:52:45;5.40;75.80
32293;DHT22;43233;48.608;8.838;2023-05-18T03:55:11;5.40;75.70
32293;DHT22;43233;48.608;8.838;2023-05-18T03:57:37;5.40;75.60
32293;DHT22;43233;48.608;8.838;2023-05-18T04:00:04;5.40;75.50
32293;DHT22;43233;48.608;8.838;2023-05-18T04:02:33;5.40;75.40
32293;DHT22;43233;48.608;8.838;2023-05-18T04:04:59;5.40;75.20
32293;DHT22;43233;48.608;8.838;2023-05-18T04:07:25;5.40;75.20
32293;DHT22;43233;48.608;8.838;2023-05-18T04:09:53;5.40;75.10
32293;DHT22;43233;48.608;8.838;2023-05-18T04:12:18;5.50;75.10
32293;DHT22;43233;48.608;8.838;2023-05-18T04:14:44;5.50;75.00
32293;DHT22;43233;48.608;8.838;2023-05-18T04:17:17;5.50;74.90
32293;DHT22;43233;48.608;8.838;2023-05-18T04:19:46;5.50;74.90
32293;DHT22;43233;48.608;8.838;2023-05-18T04:22:12;5.50;75.00
32293;DHT22;43233;48.608;8.838;2023-05-18T04:24:38;5.50;75.40
32293;DHT22;43233;48.608;8.838;2023-05-18T04:27:05;5.50;75.40
32293;DHT22;43233;48.608;8.838;2023-05-18T04:29:31;5.50;75.50
32293;DHT22;43233;48.608;8.838;2023-05-18T04:31:57;5.50;75.50
32293;DHT22;43233;48.608;8.838;2023-05-18T04:34:27;5.50;75.60
32293;DHT22;43233;48.608;8.838;2023-05-18T04:36:52;5.50;75.80
32293;DHT22;43233;48.608;8.838;2023-05-18T04:39:23;5.60;75.80
32293;DHT22;43233;48.608;8.838;2023-05-18T04:41:50;5.60;75.70
32293;DHT22;43233;48.608;8.838;2023-05-18T04:44:29;5.60;75.80
32293;DHT22;43233;48.608;8.838;2023-05-18T04:46:55;5.60;75.90
32293;DHT22;43233;48.608;8.838;2023-05-18T04:49:21;5.70;77.10
32293;DHT22;43233;48.608;8.838;2023-05-18T04:51:53;5.70;76.20
32293;DHT22;43233;48.608;8.838;2023-05-18T04:54:27;5.70;76.20
32293;DHT22;43233;48.608;8.838;2023-05-18T04:56:57;5.80;76.40
32293;DHT22;43233;48.608;8.838;2023-05-18T04:59:23;5.80;76.40
32293;DHT22;43233;48.608;8.838;2023-05-18T05:01:53;5.80;76.30
32293;DHT22;43233;48.608;8.838;2023-05-18T05:04:22;5.80;76.20
32293;DHT22;43233;48.608;8.838;2023-05-18T05:06:48;5.90;76.20
32293;DHT22;43233;48.608;8.838;2023-05-18T05:09:14;5.90;75.90
32293;DHT22;43233;48.608;8.838;2023-05-18T05:11:40;5.90;76.00
32293;DHT22;43233;48.608;8.838;2023-05-18T05:14:06;6.00;75.80
32293;DHT22;43233;48.608;8.838;2023-05-18T05:16:32;6.10;75.90
32293;DHT22;43233;48.608;8.838;2023-05-18T05:18:57;6.10;75.70
32293;DHT22;43233;48.608;8.838;2023-05-18T05:21:24;6.10;75.50
32293;DHT22;43233;48.608;8.838;2023-05-18T05:23:50;6.10;75.30
32293;DHT22;43233;48.608;8.838;2023-05-18T05:26:16;6.20;75.70
32293;DHT22;43233;48.608;8.838;2023-05-18T05:28:42;6.30;75.10
32293;DHT22;43233;48.608;8.838;2023-05-18T05:31:08;6.30;75.10
32293;DHT22;43233;48.608;8.838;2023-05-18T05:33:33;6.30;74.70
32293;DHT22;43233;48.608;8.838;2023-05-18T05:35:59;6.40;74.80
32293;DHT22;43233;48.608;8.838;2023-05-18T05:38:25;6.40;74.20
32293;DHT22;43233;48.608;8.838;2023-05-18T05:40:51;6.40;73.80
32293;DHT22;43233;48.608;8.838;2023-05-18T05:43:16;6.50;74.10
32293;DHT22;43233;48.608;8.838;2023-05-18T05:45:42;6.60;74.00
32293;DHT22;43233;48.608;8.838;2023-05-18T05:48:08;6.60;73.20
32293;DHT22;43233;48.608;8.838;2023-05-18T05:50:34;6.70;73.00
32293;DHT22;43233;48.608;8.838;2023-05-18T05:53:00;6.70;72.40
32293;DHT22;43233;48.608;8.838;2023-05-18T05:55:26;6.80;71.60
32293;DHT22;43233;48.608;8.838;2023-05-18T05:57:51;6.90;71.80
32293;DHT22;43233;48.608;8.838;2023-05-18T06:00:17;6.90;71.70
32293;DHT22;43233;48.608;8.838;2023-05-18T06:02:43;7.00;71.20
32293;DHT22;43233;48.608;8.838;2023-05-18T06:05:09;7.10;70.80
32293;DHT22;43233;48.608;8.838;2023-05-18T06:07:35;7.10;71.00
32293;DHT22;43233;48.608;8.838;2023-05-18T06:10:01;7.20;70.30
32293;DHT22;43233;48.608;8.838;2023-05-18T06:12:26;7.20;69.30
32293;DHT22;43233;48.608;8.838;2023-05-18T06:14:54;7.30;69.10
32293;DHT22;43233;48.608;8.838;2023-05-18T06:17:24;7.30;69.20
32293;DHT22;43233;48.608;8.838;2023-05-18T06:19:50;7.40;69.00
32293;DHT22;43233;48.608;8.838;2023-05-18T06:22:15;7.50;69.90
32293;DHT22;43233;48.608;8.838;2023-05-18T06:24:41;7.60;69.90
32293;DHT22;43233;48.608;8.838;2023-05-18T06:27:07;7.60;68.90
32293;DHT22;43233;48.608;8.838;2023-05-18T06:29:33;7.70;69.20
32293;DHT22;43233;48.608;8.838;2023-05-18T06:31:58;7.80;69.40
32293;DHT22;43233;48.608;8.838;2023-05-18T06:34:24;7.90;67.50
32293;DHT22;43233;48.608;8.838;2023-05-18T06:36:50;8.00;67.10
32293;DHT22;43233;48.608;8.838;2023-05-18T06:39:15;8.10;66.60
32293;DHT22;43233;48.608;8.838;2023-05-18T06:41:41;8.20;66.80
32293;DHT22;43233;48.608;8.838;2023-05-18T06:44:09;8.30;65.50
32293;DHT22;43233;48.608;8.838;2023-05-18T06:46:35;8.30;66.20
32293;DHT22;43233;48.608;8.838;2023-05-18T06:49:00;8.40;65.50
32293;DHT22;43233;48.608;8.838;2023-05-18T06:51:26;8.50;64.90
32293;DHT22;43233;48.608;8.838;2023-05-18T06:53:51;8.60;64.50
32293;DHT22;43233;48.608;8.838;2023-05-18T06:56:17;8.60;65.20
32293;DHT22;43233;48.608;8.838;2023-05-18T06:58:43;8.70;64.50
32293;DHT22;43233;48.608;8.838;2023-05-18T07:01:09;8.80;64.10
32293;DHT22;43233;48.608;8.838;2023-05-18T07:03:35;8.90;64.70
32293;DHT22;43233;48.608;8.838;2023-05-18T07:06:02;9.00;63.60
32293;DHT22;43233;48.608;8.838;2023-05-18T07:08:29;9.10;63.00
32293;DHT22;43233;48.608;8.838;2023-05-18T07:10:55;9.20;63.00
32293;DHT22;43233;48.608;8.838;2023-05-18T07:13:23;9.30;62.70
32293;DHT22;43233;48.608;8.838;2023-05-18T07:15:49;9.40;60.30
32293;DHT22;43233;48.608;8.838;2023-05-18T07:18:15;9.50;61.00
32293;DHT22;43233;48.608;8.838;2023-05-18T07:20:40;9.60;61.20
32293;DHT22;43233;48.608;8.838;2023-05-18T07:23:06;9.70;61.10
32293;DHT22;43233;48.608;8.838;2023-05-18T07:25:32;9.70;61.70
32293;DHT22;43233;48.608;8.838;2023-05-18T07:27:57;9.80;61.10
32293;DHT22;43233;48.608;8.838;2023-05-18T07:30:23;9.90;61.20
32293;DHT22;43233;48.608;8.838;2023-05-18T07:32:51;10.10;60.60
32293;DHT22;43233;48.608;8.838;2023-05-18T07:35:16;10.10;61.80
32293;DHT22;43233;48.608;8.838;2023-05-18T07:37:44;10.30;60.00
32293;DHT22;43233;48.608;8.838;2023-05-18T07:40:10;10.40;59.60
32293;DHT22;43233;48.608;8.838;2023-05-18T07:42:38;10.50;59.30
32293;DHT22;43233;48.608;8.838;2023-05-18T07:45:05;10.60;60.10
32293;DHT22;43233;48.608;8.838;2023-05-18T07:47:31;10.70;58.10
32293;DHT22;43233;48.608;8.838;2023-05-18T07:49:56;10.80;57.70
32293;DHT22;43233;48.608;8.838;2023-05-18T07:52:22;10.90;58.30
32293;DHT22;43233;48.608;8.838;2023-05-18T07:54:48;10.90;55.60
32293;DHT22;43233;48.608;8.838;2023-05-18T07:57:13;11.00;58.00
32293;DHT22;43233;48.608;8.838;2023-05-18T07:59:39;11.00;57.20
32293;DHT22;43233;48.608;8.838;2023-05-18T08:02:05;11.10;56.20
32293;DHT22;43233;48.608;8.838;2023-05-18T08:04:30;11.10;57.00
32293;DHT22;43233;48.608;8.838;2023-05-18T08:06:56;11.20;57.20
32293;DHT22;43233;48.608;8.838;2023-05-18T08:09:25;11.30;57.00
32293;DHT22;43233;48.608;8.838;2023-05-18T08:11:51;11.40;57.00
32293;DHT22;43233;48.608;8.838;2023-05-18T08:14:17;11.40;55.30
32293;DHT22;43233;48.608;8.838;2023-05-18T08:16:43;11.40;54.20
32293;DHT22;43233;48.608;8.838;2023-05-18T08:19:08;11.50;55.10
32293;DHT22;43233;48.608;8.838;2023-05-18T08:21:34;11.50;56.00
32293;DHT22;43233;48.608;8.838;2023-05-18T08:24:01;11.60;54.60
32293;DHT22;43233;48.608;8.838;2023-05-18T08:26:26;11.60;55.20
32293;DHT22;43233;48.608;8.838;2023-05-18T08:28:52;11.80;56.10
32293;DHT22;43233;48.608;8.838;2023-05-18T08:31:18;11.90;54.50
32293;DHT22;43233;48.608;8.838;2023-05-18T08:33:43;11.90;53.80
32293;DHT22;43233;48.608;8.838;2023-05-18T08:36:09;12.00;54.20
32293;DHT22;43233;48.608;8.838;2023-05-18T08:38:35;12.10;52.20
32293;DHT22;43233;48.608;8.838;2023-05-18T08:41:07;12.10;53.00
32293;DHT22;43233;48.608;8.838;2023-05-18T08:43:37;12.20;53.00
32293;DHT22;43233;48.608;8.838;2023-05-18T08:46:34;12.30;52.40
32293;DHT22;43233;48.608;8.838;2023-05-18T08:49:00;12.40;51.90
32293;DHT22;43233;48.608;8.838;2023-05-18T08:51:28;12.50;53.40
32293;DHT22;43233;48.608;8.838;2023-05-18T08:53:57;12.50;53.00
32293;DHT22;43233;48.608;8.838;2023-05-18T08:56:24;12.50;49.90
32293;DHT22;43233;48.608;8.838;2023-05-18T08:58:54;12.50;50.30
32293;DHT22;43233;48.608;8.838;2023-05-18T09:01:20;12.60;49.80
32293;DHT22;43233;48.608;8.838;2023-05-18T09:03:52;12.70;51.00
32293;DHT22;43233;48.608;8.838;2023-05-18T09:06:19;12.80;49.80
32293;DHT22;43233;48.608;8.838;2023-05-18T09:08:45;12.90;50.00
32293;DHT22;43233;48.608;8.838;2023-05-18T09:11:12;13.10;48.60
32293;DHT22;43233;48.608;8.838;2023-05-18T09:13:38;13.20;49.30
32293;DHT22;43233;48.608;8.838;2023-05-18T09:16:03;13.30;48.50
32293;DHT22;43233;48.608;8.838;2023-05-18T09:18:29;13.40;48.40
32293;DHT22;43233;48.608;8.838;2023-05-18T09:20:55;13.50;47.30
32293;DHT22;43233;48.608;8.838;2023-05-18T09:23:21;13.50;46.40
32293;DHT22;43233;48.608;8.838;2023-05-18T09:25:47;13.60;46.80
32293;DHT22;43233;48.608;8.838;2023-05-18T09:28:25;13.70;47.80
32293;DHT22;43233;48.608;8.838;2023-05-18T09:30:51;13.70;45.40
32293;DHT22;43233;48.608;8.838;2023-05-18T09:33:19;13.80;47.20
32293;DHT22;43233;48.608;8.838;2023-05-18T09:35:49;13.90;47.40
32293;DHT22;43233;48.608;8.838;2023-05-18T09:38:16;14.00;45.30
32293;DHT22;43233;48.608;8.838;2023-05-18T09:40:47;14.00;44.00
32293;DHT22;43233;48.608;8.838;2023-05-18T09:43:15;14.00;44.20
32293;DHT22;43233;48.608;8.838;2023-05-18T09:45:45;14.00;45.00
32293;DHT22;43233;48.608;8.838;2023-05-18T09:48:13;14.00;45.60
32293;DHT22;43233;48.608;8.838;2023-05-18T09:50:39;14.10;45.40
32293;DHT22;43233;48.608;8.838;2023-05-18T09:53:08;14.10;44.10
32293;DHT22;43233;48.608;8.838;2023-05-18T09:55:45;14.20;45.70
32293;DHT22;43233;48.608;8.838;2023-05-18T09:58:12;14.30;43.30
32293;DHT22;43233;48.608;8.838;2023-05-18T10:00:41;14.30;43.80
32293;DHT22;43233;48.608;8.838;2023-05-18T10:03:23;14.40;42.00
32293;DHT22;43233;48.608;8.838;2023-05-18T10:05:50;14.40;43.00
32293;DHT22;43233;48.608;8.838;2023-05-18T10:08:16;14.40;43.10
32293;DHT22;43233;48.608;8.838;2023-05-18T10:10:44;14.50;43.70
32293;DHT22;43233;48.608;8.838;2023-05-18T10:13:15;14.70;43.50
32293;DHT22;43233;48.608;8.838;2023-05-18T10:18:19;15.10;41.80
32293;DHT22;43233;48.608;8.838;2023-05-18T10:20:46;15.20;41.90
32293;DHT22;43233;48.608;8.838;2023-05-18T10:23:12;15.30;41.30
32293;DHT22;43233;48.608;8.838;2023-05-18T10:25:40;15.30;40.70
32293;DHT22;43233;48.608;8.838;2023-05-18T10:28:09;15.30;39.60
32293;DHT22;43233;48.608;8.838;2023-05-18T10:30:37;15.40;39.90
32293;DHT22;43233;48.608;8.838;2023-05-18T10:33:04;15.50;41.20
32293;DHT22;43233;48.608;8.838;2023-05-18T10:35:31;15.70;41.20
32293;DHT22;43233;48.608;8.838;2023-05-18T10:37:58;15.80;39.80
32293;DHT22;43233;48.608;8.838;2023-05-18T10:40:27;15.90;39.10
32293;DHT22;43233;48.608;8.838;2023-05-18T10:42:56;15.90;38.50
32293;DHT22;43233;48.608;8.838;2023-05-18T10:45:23;16.00;39.00
32293;DHT22;43233;48.608;8.838;2023-05-18T10:47:51;16.20;38.10
32293;DHT22;43233;48.608;8.838;2023-05-18T10:50:22;16.30;38.80
32293;DHT22;43233;48.608;8.838;2023-05-18T10:52:50;16.40;36.10
32293;DHT22;43233;48.608;8.838;2023-05-18T10:55:17;16.40;36.10
32293;DHT22;43233;48.608;8.838;2023-05-18T10:57:49;16.50;37.10
32293;DHT22;43233;48.608;8.838;2023-05-18T11:00:17;16.60;36.70
32293;DHT22;43233;48.608;8.838;2023-05-18T11:02:43;16.50;35.20
32293;DHT22;43233;48.608;8.838;2023-05-18T11:05:10;16.70;38.20
32293;DHT22;43233;48.608;8.838;2023-05-18T11:07:36;16.70;35.50
32293;DHT22;43233;48.608;8.838;2023-05-18T11:10:08;16.60;36.00
32293;DHT22;43233;48.608;8.838;2023-05-18T11:12:36;16.60;37.50
32293;DHT22;43233;48.608;8.838;2023-05-18T11:15:03;16.50;36.20
32293;DHT22;43233;48.608;8.838;2023-05-18T11:17:32;16.60;36.40
32293;DHT22;43233;48.608;8.838;2023-05-18T11:27:55;17.00;34.70
32293;DHT22;43233;48.608;8.838;2023-05-18T11:30:45;17.00;36.00
32293;DHT22;43233;48.608;8.838;2023-05-18T11:33:22;17.10;35.70
32293;DHT22;43233;48.608;8.838;2023-05-18T11:36:01;17.10;35.30
32293;DHT22;43233;48.608;8.838;2023-05-18T11:38:53;17.10;34.80
32293;DHT22;43233;48.608;8.838;2023-05-18T11:44:17;17.20;35.10
32293;DHT22;43233;48.608;8.838;2023-05-18T11:47:06;17.30;34.00
32293;DHT22;43233;48.608;8.838;2023-05-18T11:49:46;17.40;33.30
32293;DHT22;43233;48.608;8.838;2023-05-18T11:52:18;17.50;34.00
32293;DHT22;43233;48.608;8.838;2023-05-18T11:54:51;17.70;33.90
32293;DHT22;43233;48.608;8.838;2023-05-18T11:57:25;17.80;33.80
32293;DHT22;43233;48.608;8.838;2023-05-18T11:59:55;17.80;33.00
32293;DHT22;43233;48.608;8.838;2023-05-18T12:02:26;17.90;33.20
32293;DHT22;43233;48.608;8.838;2023-05-18T12:04:53;18.00;32.40
32293;DHT22;43233;48.608;8.838;2023-05-18T12:07:21;18.00;32.00
32293;DHT22;43233;48.608;8.838;2023-05-18T12:09:48;18.20;32.40
32293;DHT22;43233;48.608;8.838;2023-05-18T12:12:15;18.30;32.00
32293;DHT22;43233;48.608;8.838;2023-05-18T12:15:00;18.50;32.10
32293;DHT22;43233;48.608;8.838;2023-05-18T12:17:40;18.50;31.10
32293;DHT22;43233;48.608;8.838;2023-05-18T12:20:17;18.60;31.70
32293;DHT22;43233;48.608;8.838;2023-05-18T12:22:53;18.70;31.00
32293;DHT22;43233;48.608;8.838;2023-05-18T12:25:20;18.80;32.70
32293;DHT22;43233;48.608;8.838;2023-05-18T12:27:46;18.90;31.90
32293;DHT22;43233;48.608;8.838;2023-05-18T12:30:16;18.80;30.60
32293;DHT22;43233;48.608;8.838;2023-05-18T12:32:50;18.70;30.10
32293;DHT22;43233;48.608;8.838;2023-05-18T12:35:17;18.90;30.10
32293;DHT22;43233;48.608;8.838;2023-05-18T12:37:46;19.00;30.40
32293;DHT22;43233;48.608;8.838;2023-05-18T12:40:13;19.10;30.20
32293;DHT22;43233;48.608;8.838;2023-05-18T12:42:39;19.10;30.60
32293;DHT22;43233;48.608;8.838;2023-05-18T12:45:05;19.20;30.20
32293;DHT22;43233;48.608;8.838;2023-05-18T12:47:32;19.30;29.50
32293;DHT22;43233;48.608;8.838;2023-05-18T12:50:05;19.30;28.80
32293;DHT22;43233;48.608;8.838;2023-05-18T12:52:31;19.20;29.90
32293;DHT22;43233;48.608;8.838;2023-05-18T12:54:57;19.30;31.10
32293;DHT22;43233;48.608;8.838;2023-05-18T12:57:26;19.40;29.60
32293;DHT22;43233;48.608;8.838;2023-05-18T12:59:59;19.40;30.30
32293;DHT22;43233;48.608;8.838;2023-05-18T13:05:06;19.50;28.70
32293;DHT22;43233;48.608;8.838;2023-05-18T13:07:43;19.40;28.50
32293;DHT22;43233;48.608;8.838;2023-05-18T13:10:11;19.40;29.10
32293;DHT22;43233;48.608;8.838;2023-05-18T13:15:09;19.50;29.70
32293;DHT22;43233;48.608;8.838;2023-05-18T13:17:34;19.50;27.80
32293;DHT22;43233;48.608;8.838;2023-05-18T13:20:00;19.40;28.80
32293;DHT22;43233;48.608;8.838;2023-05-18T13:22:26;19.50;29.30
32293;DHT22;43233;48.608;8.838;2023-05-18T13:24:52;19.60;28.90
32293;DHT22;43233;48.608;8.838;2023-05-18T13:27:17;19.80;27.90
32293;DHT22;43233;48.608;8.838;2023-05-18T13:29:43;19.90;26.80
32293;DHT22;43233;48.608;8.838;2023-05-18T13:32:08;20.10;27.40
32293;DHT22;43233;48.608;8.838;2023-05-18T13:34:34;20.20;26.60
32293;DHT22;43233;48.608;8.838;2023-05-18T13:36:59;20.20;27.20
32293;DHT22;43233;48.608;8.838;2023-05-18T13:39:25;20.20;27.90
32293;DHT22;43233;48.608;8.838;2023-05-18T13:41:51;19.90;27.20
32293;DHT22;43233;48.608;8.838;2023-05-18T13:44:16;19.80;28.30
32293;DHT22;43233;48.608;8.838;2023-05-18T13:46:42;19.90;28.00
32293;DHT22;43233;48.608;8.838;2023-05-18T13:49:08;20.00;26.90
32293;DHT22;43233;48.608;8.838;2023-05-18T13:51:33;20.20;27.70
32293;DHT22;43233;48.608;8.838;2023-05-18T13:53:59;20.30;28.40
32293;DHT22;43233;48.608;8.838;2023-05-18T13:56:26;20.40;27.50
32293;DHT22;43233;48.608;8.838;2023-05-18T13:58:52;20.40;26.10
32293;DHT22;43233;48.608;8.838;2023-05-18T14:01:17;20.50;25.80
32293;DHT22;43233;48.608;8.838;2023-05-18T14:03:43;20.30;25.10
32293;DHT22;43233;48.608;8.838;2023-05-18T14:06:08;20.30;25.20
32293;DHT22;43233;48.608;8.838;2023-05-18T14:08:34;20.00;25.40
32293;DHT22;43233;48.608;8.838;2023-05-18T14:10:59;19.30;27.20
32293;DHT22;43233;48.608;8.838;2023-05-18T14:13:25;19.30;27.80
32293;DHT22;43233;48.608;8.838;2023-05-18T14:15:51;19.10;26.80
32293;DHT22;43233;48.608;8.838;2023-05-18T14:18:16;18.90;27.00
32293;DHT22;43233;48.608;8.838;2023-05-18T14:20:42;18.90;26.70
32293;DHT22;43233;48.608;8.838;2023-05-18T14:23:08;18.90;27.00
32293;DHT22;43233;48.608;8.838;2023-05-18T14:25:33;18.90;27.30
32293;DHT22;43233;48.608;8.838;2023-05-18T14:27:59;18.80;28.50
32293;DHT22;43233;48.608;8.838;2023-05-18T14:30:25;18.50;29.00
32293;DHT22;43233;48.608;8.838;2023-05-18T14:32:50;18.40;28.80
32293;DHT22;43233;48.608;8.838;2023-05-18T14:35:16;18.40;29.20
32293;DHT22;43233;48.608;8.838;2023-05-18T14:37:42;18.30;29.60
32293;DHT22;43233;48.608;8.838;2023-05-18T14:40:07;18.30;29.30
32293;DHT22;43233;48.608;8.838;2023-05-18T14:42:33;18.30;29.10
32293;DHT22;43233;48.608;8.838;2023-05-18T14:45:00;18.20;28.30
32293;DHT22;43233;48.608;8.838;2023-05-18T14:47:26;18.20;28.50
32293;DHT22;43233;48.608;8.838;2023-05-18T14:49:51;18.20;28.30
32293;DHT22;43233;48.608;8.838;2023-05-18T14:52:17;18.20;28.60
32293;DHT22;43233;48.608;8.838;2023-05-18T14:54:43;18.20;29.50
32293;DHT22;43233;48.608;8.838;2023-05-18T14:57:08;18.10;30.00
32293;DHT22;43233;48.608;8.838;2023-05-18T14:59:34;18.00;31.10
32293;DHT22;43233;48.608;8.838;2023-05-18T15:01:59;17.80;30.40
32293;DHT22;43233;48.608;8.838;2023-05-18T15:04:25;17.90;30.20
32293;DHT22;43233;48.608;8.838;2023-05-18T15:06:51;17.90;30.30
32293;DHT22;43233;48.608;8.838;2023-05-18T15:09:17;18.00;29.80
32293;DHT22;43233;48.608;8.838;2023-05-18T15:11:42;17.90;30.10
32293;DHT22;43233;48.608;8.838;2023-05-18T15:14:08;17.90;29.00
32293;DHT22;43233;48.608;8.838;2023-05-18T15:16:34;17.90;28.50
32293;DHT22;43233;48.608;8.838;2023-05-18T15:19:00;17.90;28.80
32293;DHT22;43233;48.608;8.838;2023-05-18T15:21:25;17.80;29.00
32293;DHT22;43233;48.608;8.838;2023-05-18T15:23:51;17.80;29.50
32293;DHT22;43233;48.608;8.838;2023-05-18T15:26:17;17.80;29.80
32293;DHT22;43233;48.608;8.838;2023-05-18T15:28:42;17.70;29.70
32293;DHT22;43233;48.608;8.838;2023-05-18T15:31:09;17.70;29.70
32293;DHT22;43233;48.608;8.838;2023-05-18T15:33:35;17.60;29.70
32293;DHT22;43233;48.608;8.838;2023-05-18T15:36:01;17.50;30.00
32293;DHT22;43233;48.608;8.838;2023-05-18T15:38:27;17.50;29.90
32293;DHT22;43233;48.608;8.838;2023-05-18T15:40:52;17.50;30.00
32293;DHT22;43233;48.608;8.838;2023-05-18T15:43:18;17.40;30.20
32293;DHT22;43233;48.608;8.838;2023-05-18T15:45:45;17.40;30.40
32293;DHT22;43233;48.608;8.838;2023-05-18T15:48:11;17.40;30.30
32293;DHT22;43233;48.608;8.838;2023-05-18T15:50:36;17.30;30.50
32293;DHT22;43233;48.608;8.838;2023-05-18T15:53:02;17.20;30.20
32293;DHT22;43233;48.608;8.838;2023-05-18T15:55:28;17.10;30.90
32293;DHT22;43233;48.608;8.838;2023-05-18T15:57:53;17.10;30.70
32293;DHT22;43233;48.608;8.838;2023-05-18T16:00:19;17.10;30.70
32293;DHT22;43233;48.608;8.838;2023-05-18T16:02:47;17.10;31.10
32293;DHT22;43233;48.608;8.838;2023-05-18T16:05:13;17.00;30.90
32293;DHT22;43233;48.608;8.838;2023-05-18T16:07:39;16.90;31.50
32293;DHT22;43233;48.608;8.838;2023-05-18T16:10:06;16.90;31.70